Time;durP1;ratioP1;P1;durP2;ratioP2;P2;SDS_P1;SDS_P2;PMS_P1;PMS_P2;Temp;Humidity;BMP_temperature;BMP_pressure;BME280_temperature;BME280_humidity;BME280_pressure;Samples;Min_cycle;Max_cycle;Signal;HPM_P1;HPM_P2
2023/08/29 00:02:19;;;;;;;6.60;3.63;;;;;;;16.19;100.00;99175.09;12220603;19;20029;-88
2023/08/29 00:06:21;;;;;;;4.78;3.17;;;;;;;16.19;100.00;99175.09;12202984;19;20084;-89
2023/08/29 00:10:23;;;;;;;4.70;3.50;;;;;;;16.19;100.00;99163.97;12228348;19;20014;-88
2023/08/29 00:14:26;;;;;;;6.78;3.05;;;;;;;16.17;100.00;99166.22;12228365;19;20003;-86
2023/08/29 00:18:28;;;;;;;8.13;3.60;;;;;;;16.17;100.00;99166.22;12197412;19;20490;-87
2023/08/29 00:22:30;;;;;;;5.82;3.03;;;;;;;16.15;100.00;99185.16;12215063;19;20075;-88
2023/08/29 00:26:32;;;;;;;4.75;2.80;;;;;;;16.12;100.00;99191.31;12208665;19;20010;-87
2023/08/29 00:30:37;;;;;;;5.95;3.10;;;;;;;16.09;100.00;99192.78;12192861;19;20035;-89
2023/08/29 00:34:40;;;;;;;5.53;3.70;;;;;;;16.12;100.00;99199.66;12217866;19;19999;-88
2023/08/29 00:38:45;;;;;;;5.13;3.33;;;;;;;16.17;100.00;99207.94;12210924;19;20478;-90
2023/08/29 00:42:48;;;;;;;;;;;;;;;16.17;100.00;99210.72;12189221;19;20783;-89
2023/08/29 00:46:52;;;;;;;7.22;3.63;;;;;;;16.20;100.00;99217.63;12203920;19;20324;-88
2023/08/29 00:50:54;;;;;;;7.38;3.30;;;;;;;16.20;100.00;99224.00;12211061;19;20015;-89
2023/08/29 00:54:57;;;;;;;5.40;3.07;;;;;;;16.21;100.00;99227.59;12211776;19;20734;-89
2023/08/29 00:59:00;;;;;;;6.63;3.45;;;;;;;16.24;100.00;99240.91;12208465;19;20109;-88
2023/08/29 01:03:02;;;;;;;5.15;3.25;;;;;;;16.24;100.00;99241.75;12190144;19;20018;-89
2023/08/29 01:07:07;;;;;;;6.40;3.22;;;;;;;16.31;100.00;99249.69;12214448;19;20517;-89
2023/08/29 01:11:16;;;;;;;4.27;3.17;;;;;;;16.33;100.00;99253.00;12211367;19;20021;-89
2023/08/29 01:15:23;;;;;;;6.47;3.60;;;;;;;16.36;100.00;99258.78;12186177;19;20745;-90
2023/08/29 01:19:26;;;;;;;5.82;3.45;;;;;;;16.40;100.00;99259.00;12210929;19;20031;-90
2023/08/29 01:23:34;;;;;;;6.53;3.42;;;;;;;16.39;100.00;99254.59;12208956;19;20007;-88
2023/08/29 01:27:37;;;;;;;8.50;4.45;;;;;;;16.40;100.00;99250.66;12176893;19;20010;-90
2023/08/29 01:31:44;;;;;;;7.18;3.67;;;;;;;16.45;100.00;99246.97;12218557;19;20014;-88
2023/08/29 01:35:48;;;;;;;4.30;3.08;;;;;;;16.41;100.00;99239.22;12216504;19;20406;-89
2023/08/29 01:39:50;;;;;;;5.83;3.20;;;;;;;16.39;100.00;99224.81;12186099;19;20010;-88
2023/08/29 01:43:52;;;;;;;8.75;4.07;;;;;;;16.40;100.00;99218.13;12208148;19;20094;-88
2023/08/29 01:47:54;;;;;;;11.70;3.07;;;;;;;16.38;100.00;99212.03;12210814;19;20013;-87
2023/08/29 01:51:56;;;;;;;7.90;3.15;;;;;;;16.40;100.00;99215.34;12192789;19;20082;-87
2023/08/29 01:55:59;;;;;;;5.13;3.33;;;;;;;16.38;100.00;99212.03;12202832;19;20150;-87
2023/08/29 02:00:04;;;;;;;6.50;3.20;;;;;;;16.38;100.00;99220.38;12186308;19;20372;-85
2023/08/29 02:04:14;;;;;;;;;;;;;;;16.35;100.00;99222.94;12207344;19;20031;-88
2023/08/29 02:08:18;;;;;;;4.78;3.17;;;;;;;16.33;100.00;99219.63;12194221;19;19939;-88
2023/08/29 02:12:20;;;;;;;4.82;3.38;;;;;;;16.30;100.00;99214.66;12190403;19;20521;-86
2023/08/29 02:16:24;;;;;;;2.33;1.85;;;;;;;16.29;100.00;99201.91;12209083;19;20014;-87
2023/08/29 02:20:26;;;;;;;4.88;2.95;;;;;;;16.33;100.00;99201.00;12202815;19;20458;-88
2023/08/29 02:24:29;;;;;;;4.03;2.80;;;;;;;16.30;100.00;99193.28;12180113;19;20454;-86
2023/08/29 02:28:38;;;;;;;;;;;;;;;16.29;100.00;99176.88;12200779;19;20534;-87
2023/08/29 02:32:40;;;;;;;4.38;2.83;;;;;;;16.28;100.00;99166.91;12209204;19;19914;-87
2023/08/29 02:36:42;;;;;;;6.00;3.15;;;;;;;16.26;100.00;99163.59;12156920;19;21170;-89
2023/08/29 02:40:44;;;;;;;6.73;3.20;;;;;;;16.27;100.00;99159.66;12196336;19;20017;-88
2023/08/29 02:44:46;;;;;;;4.18;3.00;;;;;;;16.18;100.00;99156.75;12209031;19;20018;-88
2023/08/29 02:48:47;;;;;;;6.30;3.42;;;;;;;16.15;100.00;99161.00;12186041;19;20054;-88
2023/08/29 02:52:50;;;;;;;4.90;2.85;;;;;;;16.10;100.00;99151.91;12205274;19;20014;-87
2023/08/29 02:56:52;;;;;;;5.10;3.03;;;;;;;16.02;100.00;99144.25;12205033;19;20094;-85
2023/08/29 03:00:59;;;;;;;4.35;2.97;;;;;;;15.98;100.00;99146.00;12189095;19;20003;-88
2023/08/29 03:05:02;;;;;;;4.53;2.65;;;;;;;15.91;100.00;99138.88;12207523;19;20015;-88
2023/08/29 03:09:06;;;;;;;;;;;;;;;15.85;100.00;99151.16;12182407;19;20010;-88
2023/08/29 03:13:08;;;;;;;8.30;2.80;;;;;;;15.83;100.00;99150.66;12204455;19;19911;-88
2023/08/29 03:17:10;;;;;;;4.20;2.60;;;;;;;15.83;100.00;99155.38;12210133;19;20021;-88
2023/08/29 03:21:12;;;;;;;4.40;2.60;;;;;;;15.80;100.00;99154.03;12183193;19;20010;-90
2023/08/29 03:25:14;;;;;;;4.97;2.80;;;;;;;15.82;100.00;99160.09;12206580;19;20018;-89
2023/08/29 03:29:16;;;;;;;5.93;2.95;;;;;;;15.84;100.00;99157.84;12203326;19;20010;-89
2023/08/29 03:33:18;;;;;;;5.20;2.40;;;;;;;15.85;100.00;99153.09;12180993;19;20031;-90
2023/08/29 03:37:20;;;;;;;7.40;2.80;;;;;;;15.86;100.00;99163.13;12207915;19;20346;-87
2023/08/29 03:41:22;;;;;;;5.97;2.77;;;;;;;15.87;100.00;99170.31;12200393;19;20015;-89
2023/08/29 03:45:24;;;;;;;6.53;3.50;;;;;;;15.87;100.00;99161.97;12180759;19;20126;-87
2023/08/29 03:49:26;;;;;;;3.17;2.42;;;;;;;15.88;100.00;99170.03;12203049;19;20011;-88
2023/08/29 03:53:29;;;;;;;6.10;3.40;;;;;;;15.91;100.00;99169.44;12204094;19;20015;-88
2023/08/29 03:57:31;;;;;;;7.07;3.15;;;;;;;15.95;100.00;99164.91;12180477;19;20014;-85
2023/08/29 04:01:33;;;;;;;4.83;2.90;;;;;;;15.95;100.00;99169.63;12201204;19;20015;-88
2023/08/29 04:05:36;;;;;;;9.10;3.45;;;;;;;15.92;100.00;99159.94;12201351;19;20354;-88
2023/08/29 04:09:39;;;;;;;6.97;3.17;;;;;;;15.84;100.00;99165.34;12179850;19;20819;-87
2023/08/29 04:13:41;;;;;;;6.47;3.22;;;;;;;15.75;100.00;99165.19;12200677;19;20007;-89
2023/08/29 04:17:44;;;;;;;6.87;3.30;;;;;;;15.75;100.00;99164.38;12202554;19;20778;-88
2023/08/29 04:21:46;;;;;;;;;;;;;;;15.70;100.00;99162.50;12191305;19;20264;-88
2023/08/29 04:25:48;;;;;;;7.35;3.38;;;;;;;15.65;100.00;99162.56;12206635;19;19911;-89
2023/08/29 04:29:50;;;;;;;8.20;4.03;;;;;;;15.62;100.00;99171.47;12213210;19;20654;-90
2023/08/29 04:33:52;;;;;;;11.35;4.55;;;;;;;15.62;100.00;99157.59;12190372;19;20030;-87
2023/08/29 04:37:54;;;;;;;6.25;3.75;;;;;;;15.61;100.00;99153.97;12214735;19;20585;-88
2023/08/29 04:41:56;;;;;;;6.90;4.15;;;;;;;15.60;100.00;99157.88;12192509;19;20014;-88
2023/08/29 04:45:58;;;;;;;11.13;4.32;;;;;;;15.61;100.00;99145.63;12210178;19;20010;-88
2023/08/29 04:50:01;;;;;;;6.75;4.50;;;;;;;15.62;100.00;99157.59;12213042;19;20064;-90
2023/08/29 04:54:10;;;;;;;6.07;4.13;;;;;;;15.64;100.00;99152.56;12190175;19;20013;-90
2023/08/29 04:58:12;;;;;;;6.03;4.68;;;;;;;15.61;100.00;99165.06;12214768;19;20017;-89
2023/08/29 05:02:15;;;;;;;8.27;4.60;;;;;;;15.61;100.00;99165.06;12212395;19;20015;-88
2023/08/29 05:06:19;;;;;;;6.40;4.60;;;;;;;15.64;100.00;99163.66;12191818;19;20261;-89
2023/08/29 05:10:22;;;;;;;6.03;4.63;;;;;;;15.66;100.00;99161.41;12214322;19;20094;-89
2023/08/29 05:14:24;;;;;;;6.50;4.97;;;;;;;15.69;100.00;99160.84;12209901;19;20011;-89
2023/08/29 05:18:27;;;;;;;9.65;4.85;;;;;;;15.69;100.00;99158.91;12189174;19;20102;-87
2023/08/29 05:22:31;;;;;;;11.13;4.95;;;;;;;15.74;100.00;99155.22;12211534;19;20944;-87
2023/08/29 05:26:33;;;;;;;7.22;4.80;;;;;;;15.81;100.00;99157.63;12211522;19;20485;-88
2023/08/29 05:30:35;;;;;;;6.93;4.50;;;;;;;15.81;100.00;99152.88;12189178;19;20042;-87
2023/08/29 05:34:37;;;;;;;6.47;4.13;;;;;;;15.86;100.00;99154.78;12211444;19;20083;-87
2023/08/29 05:38:39;;;;;;;9.02;4.70;;;;;;;15.90;100.00;99151.09;12209636;19;20016;-86
2023/08/29 05:42:41;;;;;;;8.60;4.27;;;;;;;15.95;100.00;99150.19;12189573;19;20011;-87
2023/08/29 05:46:43;;;;;;;5.27;3.90;;;;;;;16.02;100.00;99155.38;12210275;19;20034;-86
2023/08/29 05:50:48;;;;;;;7.82;4.30;;;;;;;16.12;100.00;99155.19;12205000;19;20025;-86
2023/08/29 05:54:50;;;;;;;7.43;3.97;;;;;;;16.22;100.00;99160.59;12180652;19;20018;-84
2023/08/29 05:58:51;;;;;;;6.30;4.13;;;;;;;16.32;100.00;99149.28;12192218;19;20018;-83
2023/08/29 06:02:53;;;;;;;6.53;4.53;;;;;;;16.40;100.00;99148.59;12202675;19;20099;-85
2023/08/29 06:06:55;;;;;;;8.68;4.05;;;;;;;16.51;100.00;99146.47;12165236;19;20010;-86
2023/08/29 06:10:57;;;;;;;8.93;4.68;;;;;;;16.65;100.00;99143.72;12230623;19;20021;-81
2023/08/29 06:14:58;;;;;;;5.70;4.20;;;;;;;16.75;100.00;99142.72;12231933;19;20011;-82
2023/08/29 06:19:00;;;;;;;6.90;4.90;;;;;;;16.93;100.00;99144.63;12257488;19;20014;-81
2023/08/29 06:23:03;;;;;;;7.63;5.00;;;;;;;17.12;100.00;99144.50;12234995;19;20007;-84
2023/08/29 06:27:04;;;;;;;6.35;4.70;;;;;;;17.25;100.00;99157.63;12190500;19;20010;-83
2023/08/29 06:31:09;;;;;;;7.78;4.47;;;;;;;17.41;100.00;99154.50;12212413;19;20405;-84
2023/08/29 06:35:11;;;;;;;7.55;5.32;;;;;;;17.57;100.00;99153.03;12210352;19;20011;-80
2023/08/29 06:39:17;;;;;;;8.10;5.50;;;;;;;17.62;100.00;99154.88;12193551;19;20014;-87
2023/08/29 06:43:19;;;;;;;10.32;5.57;;;;;;;17.72;100.00;99160.22;12205152;19;20017;-85
2023/08/29 06:47:21;;;;;;;8.43;4.85;;;;;;;17.80;100.00;99173.44;12206225;19;20006;-84
2023/08/29 06:51:24;;;;;;;8.98;4.90;;;;;;;17.91;100.00;99168.47;12187491;19;20018;-85
2023/08/29 06:55:27;;;;;;;8.77;4.85;;;;;;;17.93;100.00;99171.75;12212019;19;20031;-82
2023/08/29 06:59:32;;;;;;;9.48;4.97;;;;;;;17.96;100.00;99177.53;12212626;19;20010;-86
2023/08/29 07:23:49;;;;;;;10.20;4.88;;;;;;;18.16;100.00;99187.38;12203156;19;20054;-86
2023/08/29 07:27:51;;;;;;;5.45;4.57;;;;;;;18.23;100.00;99198.09;12198097;19;20006;-86
2023/08/29 07:31:55;;;;;;;6.90;5.30;;;;;;;18.28;100.00;99197.16;12203463;19;20015;-87
2023/08/29 07:36:35;;;;;;;9.60;5.35;;;;;;;18.46;100.00;99193.34;12183786;19;20042;-87
2023/08/29 07:40:56;;;;;;;7.15;4.95;;;;;;;18.61;100.00;99206.09;12201680;19;20011;-86
2023/08/29 07:45:00;;;;;;;7.25;4.53;;;;;;;18.77;100.00;99203.75;12182095;19;20420;-87
2023/08/29 07:49:02;;;;;;;10.43;5.67;;;;;;;18.96;100.00;99204.38;12197603;19;20025;-87
2023/08/29 07:53:05;;;;;;;6.93;4.57;;;;;;;19.12;100.00;99202.78;12202088;19;20537;-86
2023/08/29 07:57:07;;;;;;;6.70;4.30;;;;;;;19.26;100.00;99211.09;12187737;19;20007;-87
2023/08/29 08:01:10;;;;;;;7.07;4.35;;;;;;;19.46;100.00;99211.66;12214415;19;20034;-87
2023/08/29 08:05:14;;;;;;;9.05;4.97;;;;;;;19.56;100.00;99220.56;12213853;19;20503;-87
2023/08/29 08:09:16;;;;;;;6.25;4.18;;;;;;;19.65;100.00;99217.00;12194485;19;20007;-87
2023/08/29 08:13:18;;;;;;;5.82;4.05;;;;;;;19.75;99.30;99225.06;12222196;19;19999;-87
2023/08/29 08:17:20;;;;;;;9.77;3.87;;;;;;;19.88;98.16;99228.91;12222116;19;20002;-87
2023/08/29 08:21:22;;;;;;;6.60;3.87;;;;;;;20.11;96.16;99221.19;12199476;19;20034;-87
2023/08/29 08:25:27;;;;;;;9.05;3.72;;;;;;;20.28;94.06;99215.59;12219283;19;20018;-87
2023/08/29 08:29:29;;;;;;;7.55;4.43;;;;;;;20.36;92.74;99225.16;12219545;19;20034;-87
2023/08/29 08:33:31;;;;;;;8.57;4.43;;;;;;;20.41;90.77;99225.81;12197166;19;20028;-87
2023/08/29 08:37:33;;;;;;;10.97;3.90;;;;;;;20.52;89.75;99231.06;12217240;19;20031;-87
2023/08/29 08:41:36;;;;;;;;;;;;;;;20.50;88.93;99228.63;12221604;19;20027;-87
2023/08/29 08:45:38;;;;;;;6.13;3.70;;;;;;;20.64;89.50;99234.06;12199856;19;19922;-87
2023/08/29 08:49:41;;;;;;;6.32;3.30;;;;;;;20.80;88.64;99231.59;12221201;19;20082;-87
2023/08/29 08:53:43;;;;;;;4.30;3.30;;;;;;;20.92;88.40;99238.13;12219645;19;20019;-87
2023/08/29 08:57:45;;;;;;;4.97;3.10;;;;;;;21.02;85.90;99233.34;12195015;19;20019;-87
2023/08/29 09:01:47;;;;;;;6.10;2.50;;;;;;;21.05;86.37;99241.06;12217391;19;20030;-87
2023/08/29 09:05:49;;;;;;;4.77;2.80;;;;;;;21.05;84.02;99241.06;12215612;19;20402;-87
2023/08/29 09:10:13;;;;;;;6.22;3.10;;;;;;;21.00;83.15;99241.25;12195540;19;20026;-87
2023/08/29 09:14:15;;;;;;;5.30;3.15;;;;;;;21.10;80.52;99243.72;12238992;19;20408;-87
2023/08/29 09:18:24;;;;;;;7.20;2.78;;;;;;;21.06;81.07;99239.91;12193795;19;20015;-87
2023/08/29 09:22:45;;;;;;;6.53;3.25;;;;;;;21.30;79.18;99250.56;12214235;19;20045;-87
2023/08/29 09:26:47;;;;;;;8.93;3.20;;;;;;;21.26;79.90;99255.19;12214607;19;20018;-88
2023/08/29 09:30:49;;;;;;;5.35;3.00;;;;;;;21.46;78.84;99259.28;12191755;19;20011;-86
2023/08/29 09:34:57;;;;;;;4.07;2.77;;;;;;;21.56;78.12;99264.50;12215898;19;20011;-87
2023/08/29 09:38:59;;;;;;;5.10;3.00;;;;;;;21.85;77.03;99255.28;12193786;19;20481;-87
2023/08/29 09:43:02;;;;;;;6.70;2.77;;;;;;;22.04;75.10;99249.22;12205598;19;20021;-87
2023/08/29 09:47:05;;;;;;;4.38;2.38;;;;;;;22.25;72.70;99255.72;12212971;19;20006;-85
2023/08/29 09:51:08;;;;;;;6.88;2.75;;;;;;;22.51;69.65;99246.25;12192357;19;20018;-87
2023/08/29 09:55:13;;;;;;;4.75;2.70;;;;;;;22.72;68.71;99238.63;12229406;19;20332;-84
2023/08/29 09:59:17;;;;;;;6.28;3.10;;;;;;;22.70;67.05;99241.00;12221955;19;20030;-85
2023/08/29 10:03:20;;;;;;;5.28;2.97;;;;;;;22.88;67.80;99232.41;12197188;19;20007;-86
2023/08/29 10:07:28;;;;;;;4.93;2.40;;;;;;;23.04;66.52;99233.41;12218215;19;20011;-86
2023/08/29 10:11:33;;;;;;;4.25;2.88;;;;;;;23.27;66.70;99224.56;12218782;19;20249;-86
2023/08/29 10:15:54;;;;;;;6.30;2.80;;;;;;;23.59;65.85;99220.84;12199302;19;20006;-87
2023/08/29 10:19:57;;;;;;;7.15;2.75;;;;;;;23.91;63.98;99209.81;12215123;19;20566;-86
2023/08/29 10:24:00;;;;;;;5.38;2.97;;;;;;;24.10;61.92;99212.03;12196005;19;20506;-86
2023/08/29 10:28:03;;;;;;;4.15;2.70;;;;;;;23.90;62.04;99208.19;12213353;19;20069;-85
2023/08/29 10:32:07;;;;;;;4.82;2.47;;;;;;;23.96;60.58;99206.78;12212543;19;20006;-86
2023/08/29 10:36:10;;;;;;;4.35;1.75;;;;;;;24.54;59.34;99200.91;12195716;19;20095;-86
2023/08/29 10:40:12;;;;;;;4.30;2.30;;;;;;;24.10;58.92;99204.41;12214081;19;20022;-87
2023/08/29 10:44:35;;;;;;;;;;;;;;;23.25;62.10;99208.03;12225712;19;20363;-85
2023/08/29 10:48:41;;;;;;;2.40;1.50;;;;;;;22.42;66.71;99211.84;12191119;19;19947;-88
2023/08/29 10:52:44;;;;;;;7.25;2.63;;;;;;;21.84;72.88;99218.00;12214016;19;20011;-86
2023/08/29 10:56:49;;;;;;;9.68;2.35;;;;;;;21.36;81.50;99205.25;12220489;19;20014;-85
2023/08/29 11:00:56;;;;;;;8.25;2.33;;;;;;;20.93;89.46;99219.34;12194570;19;20014;-86
2023/08/29 11:05:04;;;;;;;5.55;2.75;;;;;;;20.64;94.29;99208.88;12217369;19;20011;-85
2023/08/29 11:09:16;;;;;;;4.38;2.63;;;;;;;20.24;96.41;99212.66;12194319;19;20339;-86
2023/08/29 11:13:18;;;;;;;6.00;2.53;;;;;;;20.04;100.00;99205.72;12213430;19;20428;-86
2023/08/29 11:17:23;;;;;;;4.78;2.85;;;;;;;19.91;100.00;99212.28;12211758;19;20057;-85
2023/08/29 11:21:25;;;;;;;7.68;3.63;;;;;;;19.89;100.00;99220.16;12191767;19;20093;-86
2023/08/29 11:25:28;;;;;;;6.05;3.67;;;;;;;19.89;100.00;99217.38;12213627;19;20014;-86
2023/08/29 11:29:36;;;;;;;4.10;2.63;;;;;;;19.96;100.00;99203.75;12222238;19;20372;-85
2023/08/29 11:33:38;;;;;;;3.85;2.22;;;;;;;19.91;100.00;99200.28;12204829;19;20013;-88
2023/08/29 11:37:41;;;;;;;4.67;2.53;;;;;;;19.93;100.00;99193.22;12224991;19;20014;-86
2023/08/29 11:41:59;;;;;;;5.22;3.35;;;;;;;20.09;100.00;99195.53;12201131;19;20086;-86
2023/08/29 11:46:21;;;;;;;6.22;2.22;;;;;;;20.18;100.00;99199.16;12225676;19;20074;-86
2023/08/29 11:50:23;;;;;;;5.60;2.60;;;;;;;20.35;100.00;99190.78;12224771;19;20008;-87
2023/08/29 11:54:52;;;;;;;3.35;1.92;;;;;;;20.45;96.33;99193.22;12202790;19;20014;-87
2023/08/29 11:59:20;;;;;;;6.05;1.88;;;;;;;20.43;94.34;99187.13;12226646;19;20014;-86
2023/08/29 12:03:50;;;;;;;2.92;1.23;;;;;;;20.66;94.55;99187.78;12201820;19;20082;-85
2023/08/29 12:12:51;;;;;;;1.98;1.20;;;;;;;21.16;88.70;99183.53;12202406;19;20078;-87
2023/08/29 12:16:56;;;;;;;5.75;2.50;;;;;;;21.07;87.70;99191.16;12245048;19;20025;-87
2023/08/29 12:21:13;;;;;;;5.70;2.28;;;;;;;20.78;86.99;99192.69;12209191;19;20069;-87
2023/08/29 12:25:16;;;;;;;1.73;0.90;;;;;;;20.47;85.52;99196.53;12227890;19;20485;-86
2023/08/29 12:29:18;;;;;;;2.63;1.00;;;;;;;20.32;83.93;99193.41;12224302;19;20028;-87
2023/08/29 12:33:21;;;;;;;2.70;1.13;;;;;;;20.18;85.67;99204.75;12202749;19;20010;-87
2023/08/29 12:37:24;;;;;;;2.53;0.90;;;;;;;20.02;83.09;99204.44;12225824;19;20014;-85
2023/08/29 12:41:26;;;;;;;1.48;1.00;;;;;;;19.78;80.96;99199.25;12222451;19;20363;-86
2023/08/29 12:45:28;;;;;;;3.20;0.90;;;;;;;19.65;80.30;99203.03;12203770;19;20003;-87
2023/08/29 12:49:32;;;;;;;3.33;1.20;;;;;;;19.55;83.08;99198.53;12223987;19;20025;-87
2023/08/29 12:53:37;;;;;;;2.47;1.10;;;;;;;19.45;84.19;99205.22;12218688;19;20011;-86
2023/08/29 12:57:39;;;;;;;1.70;1.03;;;;;;;19.56;84.26;99194.59;12194044;19;20032;-87
2023/08/29 13:01:41;;;;;;;1.67;0.93;;;;;;;19.77;83.33;99195.66;12222785;19;20087;-87
2023/08/29 13:05:43;;;;;;;2.03;1.10;;;;;;;20.01;82.85;99205.56;12221163;19;20011;-86
2023/08/29 13:09:47;;;;;;;2.13;1.20;;;;;;;20.05;82.46;99192.59;12198305;19;20007;-86
2023/08/29 13:13:48;;;;;;;1.45;1.10;;;;;;;20.01;81.76;99189.59;12222156;19;20002;-87
2023/08/29 13:17:51;;;;;;;3.03;1.03;;;;;;;20.00;83.56;99195.53;12227826;19;20473;-86
2023/08/29 13:21:53;;;;;;;5.25;1.17;;;;;;;20.06;83.49;99190.59;12199466;19;20007;-87
2023/08/29 13:25:54;;;;;;;2.70;1.90;;;;;;;20.08;83.25;99179.88;12222775;19;20625;-87
2023/08/29 13:29:59;;;;;;;2.83;1.40;;;;;;;20.14;85.98;99181.41;12209571;19;20007;-86
2023/08/29 13:34:01;;;;;;;1.88;1.30;;;;;;;20.29;85.04;99175.31;12220011;19;20014;-87
2023/08/29 13:38:03;;;;;;;5.33;1.60;;;;;;;20.41;85.36;99180.25;12224360;19;20017;-87
2023/08/29 13:42:08;;;;;;;2.97;1.33;;;;;;;20.40;85.34;99184.16;12199548;19;20019;-86
2023/08/29 13:46:10;;;;;;;2.33;1.57;;;;;;;20.37;86.67;99180.03;12221150;19;20021;-87
2023/08/29 13:50:12;;;;;;;4.15;1.50;;;;;;;20.35;85.65;99175.97;12218282;19;20010;-88
2023/08/29 13:54:14;;;;;;;2.00;1.33;;;;;;;20.36;86.21;99166.41;12198101;19;20026;-87
2023/08/29 13:58:18;;;;;;;2.72;1.27;;;;;;;20.36;87.00;99170.03;12223104;19;20827;-87
2023/08/29 14:02:20;;;;;;;2.40;1.90;;;;;;;20.30;88.41;99168.53;12218151;19;20011;-88
2023/08/29 14:06:22;;;;;;;2.95;1.15;;;;;;;20.22;89.83;99155.38;12197213;19;20010;-87
2023/08/29 14:10:24;;;;;;;2.83;1.50;;;;;;;20.17;88.29;99158.38;12219266;19;20022;-88
2023/08/29 14:14:26;;;;;;;3.00;1.38;;;;;;;20.21;86.72;99156.53;12211664;19;20870;-87
2023/08/29 14:18:30;;;;;;;1.83;1.10;;;;;;;20.21;85.21;99156.53;12188468;19;20015;-88
2023/08/29 14:22:34;;;;;;;3.28;1.30;;;;;;;20.19;85.62;99147.66;12207165;19;20014;-87
2023/08/29 14:26:36;;;;;;;2.70;1.13;;;;;;;20.19;84.44;99153.25;12207576;19;20007;-87
2023/08/29 14:30:43;;;;;;;4.10;1.23;;;;;;;20.32;83.44;99157.84;12187244;19;20014;-88
2023/08/29 14:34:45;;;;;;;2.25;1.20;;;;;;;20.41;82.77;99157.84;12209037;19;20011;-88
2023/08/29 14:38:47;;;;;;;5.22;1.27;;;;;;;20.49;84.21;99157.00;12206021;19;20014;-87
2023/08/29 14:42:48;;;;;;;5.13;1.20;;;;;;;20.54;82.26;99156.03;12183811;19;20014;-87
2023/08/29 14:46:50;;;;;;;3.20;1.63;;;;;;;20.60;81.54;99158.31;12199776;19;20006;-88
2023/08/29 14:50:52;;;;;;;2.60;1.25;;;;;;;20.64;80.68;99161.28;12208688;19;20411;-86
2023/08/29 14:54:58;;;;;;;1.73;1.20;;;;;;;20.66;80.49;99159.78;12175127;19;20368;-87
2023/08/29 14:59:00;;;;;;;3.13;1.23;;;;;;;20.70;81.24;99157.16;12240752;19;20355;-86
2023/08/29 15:08:16;;;;;;;3.30;1.35;;;;;;;20.76;78.16;99157.78;12277387;19;20006;-87
2023/08/29 15:18:52;;;;;;;2.10;1.20;;;;;;;20.91;80.47;99155.28;12218312;19;19994;-87
2023/08/29 15:23:16;;;;;;;2.15;1.10;;;;;;;20.99;78.31;99159.19;12193591;19;20078;-88
2023/08/29 15:27:48;;;;;;;1.98;1.17;;;;;;;21.11;78.56;99161.31;12176672;19;20007;-87
2023/08/29 15:31:50;;;;;;;7.00;1.07;;;;;;;21.24;76.95;99168.69;12203912;19;20066;-88
2023/08/29 15:35:53;;;;;;;3.15;1.13;;;;;;;21.34;76.99;99162.69;12212181;19;20014;-87
2023/08/29 15:39:56;;;;;;;2.45;1.10;;;;;;;21.41;73.64;99156.56;12172823;19;20002;-88
2023/08/29 15:43:57;;;;;;;3.17;1.15;;;;;;;21.41;73.79;99145.34;12194004;19;20015;-87
2023/08/29 15:48:06;;;;;;;3.75;1.33;;;;;;;21.56;73.88;99152.38;12155650;19;20030;-87
2023/08/29 15:52:21;;;;;;;2.88;1.10;;;;;;;21.77;73.09;99153.25;12195643;19;20011;-87
2023/08/29 15:56:23;;;;;;;2.03;1.13;;;;;;;21.84;72.45;99163.91;12194582;19;20062;-86
2023/08/29 16:00:26;;;;;;;4.05;1.20;;;;;;;21.88;72.13;99164.03;12183056;19;20014;-87
2023/08/29 16:04:29;;;;;;;3.43;1.50;;;;;;;21.83;73.85;99157.47;12195430;19;20009;-86
2023/08/29 16:08:34;;;;;;;6.43;2.33;;;;;;;21.75;75.17;99163.97;12195268;19;20045;-87
2023/08/29 16:12:50;;;;;;;2.00;1.20;;;;;;;21.67;77.68;99169.63;12168632;19;20003;-86
2023/08/29 16:16:59;;;;;;;3.60;1.70;;;;;;;21.56;76.13;99163.56;12212986;19;20003;-86
2023/08/29 16:21:23;;;;;;;2.17;1.30;;;;;;;21.37;75.55;99159.22;12183267;19;20003;-86
2023/08/29 16:25:27;;;;;;;3.33;1.20;;;;;;;21.30;74.30;99156.13;12203502;19;20034;-86
2023/08/29 16:29:31;;;;;;;2.50;1.48;;;;;;;21.35;73.35;99164.31;12216261;19;20027;-85
2023/08/29 16:33:50;;;;;;;4.03;1.40;;;;;;;21.19;74.42;99168.03;12184669;19;20115;-86
2023/08/29 16:38:47;;;;;;;4.00;1.45;;;;;;;20.92;77.96;99162.53;12210784;19;20448;-86
2023/08/29 16:43:08;;;;;;;4.47;1.42;;;;;;;20.70;79.02;99165.53;12186506;19;20482;-86
2023/08/29 16:47:51;;;;;;;1.75;1.10;;;;;;;20.44;80.50;99169.19;12207892;19;20003;-85
2023/08/29 16:58:46;;;;;;;;;;;;;;;;;;;;;
2023/08/29 17:26:38;;;;;;;3.42;2.00;;;;;;;19.28;100.00;99168.88;12204576;19;20414;-85
2023/08/29 17:37:04;;;;;;;2.65;1.70;;;;;;;19.10;100.00;99173.56;12157121;19;20558;-85
2023/08/29 17:45:56;;;;;;;5.13;1.38;;;;;;;18.97;100.00;99182.84;12184472;19;20347;-84
2023/08/29 17:50:32;;;;;;;7.18;1.73;;;;;;;18.82;100.00;99187.69;12205286;19;20715;-84
2023/08/29 17:55:46;;;;;;;4.53;1.55;;;;;;;18.73;100.00;99199.94;12177780;19;20018;-85
2023/08/29 17:59:57;;;;;;;5.65;1.92;;;;;;;18.61;100.00;99208.88;12222679;19;20019;-85
2023/08/29 18:04:25;;;;;;;4.63;1.92;;;;;;;18.53;100.00;99198.47;12180032;19;20003;-86
2023/08/29 18:08:45;;;;;;;3.33;1.50;;;;;;;18.38;100.00;99194.09;12207501;19;20015;-85
2023/08/29 18:13:05;;;;;;;5.32;2.28;;;;;;;18.27;100.00;99203.88;12193759;19;20862;-85
2023/08/29 18:17:07;;;;;;;2.70;1.65;;;;;;;18.15;100.00;99202.47;12215275;19;20006;-85
2023/08/29 18:21:11;;;;;;;3.43;2.20;;;;;;;18.07;100.00;99205.19;12190493;19;20006;-84
2023/08/29 18:25:38;;;;;;;4.53;1.83;;;;;;;18.01;100.00;99212.00;12202511;19;20339;-85
2023/08/29 18:35:08;;;;;;;4.15;1.80;;;;;;;17.79;100.00;99226.69;12006080;19;2004403;-84
2023/08/29 18:50:38;;;;;;;7.18;2.28;;;;;;;17.59;100.00;99223.19;12103368;19;2004565;-85
2023/08/29 18:55:00;;;;;;;2.90;1.60;;;;;;;17.46;100.00;99224.88;12179764;19;20010;-86
2023/08/29 18:59:04;;;;;;;4.93;2.00;;;;;;;17.44;100.00;99226.31;12211663;19;20007;-86
2023/08/29 19:08:04;;;;;;;6.78;2.47;;;;;;;17.40;100.00;99241.97;12222297;19;20015;-86
2023/08/29 19:40:10;;;;;;;3.67;1.88;;;;;;;16.94;100.00;99238.09;12227143;19;20057;-84
2023/08/29 19:44:29;;;;;;;6.45;1.92;;;;;;;16.85;100.00;99237.97;12185092;19;20086;-84
2023/08/29 19:49:55;;;;;;;4.93;1.50;;;;;;;16.81;100.00;99231.38;12205495;19;20113;-83
2023/08/29 19:54:27;;;;;;;3.20;1.73;;;;;;;16.69;100.00;99228.22;12213319;19;20026;-83
2023/08/29 19:58:38;;;;;;;5.37;1.70;;;;;;;16.63;100.00;99235.00;12152750;19;20018;-84
2023/08/29 20:02:46;;;;;;;4.30;1.67;;;;;;;16.56;100.00;99232.59;12235615;19;20074;-84
2023/08/29 20:12:09;;;;;;;6.75;2.75;;;;;;;16.44;100.00;99229.47;12232601;19;20008;-84
2023/08/29 20:16:42;;;;;;;3.05;1.95;;;;;;;16.34;100.00;99227.69;12245510;19;20040;-85
2023/08/29 20:21:14;;;;;;;5.28;2.20;;;;;;;16.31;100.00;99221.91;12260413;19;20007;-84
2023/08/29 20:25:21;;;;;;;5.20;2.08;;;;;;;16.25;100.00;99223.09;12235837;19;20057;-84
2023/08/29 20:29:23;;;;;;;3.35;1.60;;;;;;;16.22;100.00;99218.16;12255694;19;20119;-85
2023/08/29 20:33:33;;;;;;;2.78;1.52;;;;;;;16.18;100.00;99212.34;12242038;19;20006;-87
2023/08/29 20:38:00;;;;;;;5.53;2.40;;;;;;;16.15;100.00;99219.38;12236244;19;20927;-85
2023/08/29 20:42:05;;;;;;;7.72;1.80;;;;;;;16.09;100.00;99216.94;12259178;19;19999;-86
2023/08/29 20:51:06;;;;;;;;;;;;;;;;;;;;;
2023/08/29 20:55:42;;;;;;;3.22;1.70;;;;;;;15.91;100.00;99207.47;12102608;19;2004433;-84
2023/08/29 21:04:52;;;;;;;1.90;1.40;;;;;;;15.75;100.00;99206.88;12209589;19;20005;-84
2023/08/29 21:09:41;;;;;;;2.78;1.85;;;;;;;15.70;100.00;99198.59;12217736;19;20031;-84
2023/08/29 21:14:06;;;;;;;5.75;2.03;;;;;;;15.61;100.00;99197.59;12226839;19;20585;-83
2023/08/29 21:18:09;;;;;;;3.17;1.65;;;;;;;15.57;100.00;99190.97;12209839;19;20007;-83
2023/08/29 21:22:11;;;;;;;3.35;1.70;;;;;;;15.50;100.00;99188.56;12228178;19;20074;-83
2023/08/29 21:26:13;;;;;;;5.53;2.00;;;;;;;15.44;100.00;99185.03;12219309;19;20014;-85
2023/08/29 21:30:15;;;;;;;3.70;1.85;;;;;;;15.38;100.00;99191.78;12201051;19;20002;-84